Time;durP1;ratioP1;P1;durP2;ratioP2;P2;SDS_P1;SDS_P2;PMS_P1;PMS_P2;Temp;Humidity;BMP_temperature;BMP_pressure;BME280_temperature;BME280_humidity;BME280_pressure;Samples;Min_cycle;Max_cycle;Signal;HPM_P1;HPM_P2
2022/07/19 00:00:09;;;;;;;;;;;;;;;;;;5018453;28;19917;-83
2022/07/19 00:02:34;;;;;;;;;;;;;;;;;;5017349;28;19921;-84
2022/07/19 00:04:59;;;;;;;;;;;;;;;;;;5020864;28;20149;-83
2022/07/19 00:07:24;;;;;;;;;;;;;;;;;;5020219;28;19936;-83
2022/07/19 00:09:50;;;;;;;;;;;;;;;;;;5014888;28;19990;-84
2022/07/19 00:12:15;;;;;;;;;;;;;;;;;;5014193;28;20382;-83
2022/07/19 00:14:40;;;;;;;;;;;;;;;;;;5019179;28;19917;-83
2022/07/19 00:17:05;;;;;;;;;;;;;;;;;;5015727;28;19972;-83
2022/07/19 00:19:31;;;;;;;;;;;;;;;;;;5015170;28;20290;-83
2022/07/19 00:21:56;;;;;;;;;;;;;;;;;;5013035;28;20382;-83
2022/07/19 00:24:21;;;;;;;;;;;;;;;;;;5018110;28;19923;-84
2022/07/19 00:26:46;;;;;;;;;;;;;;;;;;5014814;28;19939;-83
2022/07/19 00:29:11;;;;;;;;;;;;;;;;;;5015593;28;19956;-83
2022/07/19 00:31:37;;;;;;;;;;;;;;;;;;5013910;28;19921;-84
2022/07/19 00:34:02;;;;;;;;;;;;;;;;;;5018543;28;19928;-82
2022/07/19 00:36:27;;;;;;;;;;;;;;;;;;5016384;28;20537;-84
2022/07/19 00:38:52;;;;;;;;;;;;;;;;;;5019078;28;20221;-84
2022/07/19 00:41:17;;;;;;;;;;;;;;;;;;4997729;28;20193;-83
2022/07/19 00:43:42;;;;;;;;;;;;;;;;;;5019048;28;20327;-83
2022/07/19 00:46:08;;;;;;;;;;;;;;;;;;5018162;28;19925;-83
2022/07/19 00:48:33;;;;;;;;;;;;;;;;;;5021763;28;20015;-83
2022/07/19 00:50:58;;;;;;;;;;;;;;;;;;5022141;28;19917;-83
2022/07/19 00:53:23;;;;;;;;;;;;;;;;;;5019765;28;19972;-83
2022/07/19 00:55:48;;;;;;;;;;;;;;;;;;5018412;28;19913;-83
2022/07/19 00:58:13;;;;;;;;;;;;;;;;;;5020032;28;20540;-83
2022/07/19 01:00:39;;;;;;;;;;;;;;;;;;5018877;28;20272;-82
2022/07/19 01:03:04;;;;;;;;;;;;;;;;;;5001661;28;20315;-83
2022/07/19 01:05:29;;;;;;;;;;;;;;;;;;5018542;28;19925;-83
2022/07/19 01:07:54;;;;;;;;;;;;;;;;;;5016620;28;19956;-83
2022/07/19 01:10:19;;;;;;;;;;;;;;;;;;5019636;28;19916;-83
2022/07/19 01:12:44;;;;;;;;;;;;;;;;;;5013560;28;19922;-83
2022/07/19 01:15:10;;;;;;;;;;;;;;;;;;5019523;28;19925;-82
2022/07/19 01:17:35;;;;;;;;;;;;;;;;;;5021062;28;19974;-83
2022/07/19 01:20:00;;;;;;;;;;;;;;;;;;5014488;28;19922;-83
2022/07/19 01:22:25;;;;;;;;;;;;;;;;;;5015625;28;20230;-83
2022/07/19 01:24:50;;;;;;;;;;;;;;;;;;5016249;28;19925;-84
2022/07/19 01:27:16;;;;;;;;;;;;;;;;;;5018840;28;19919;-82
2022/07/19 01:29:41;;;;;;;;;;;;;;;;;;5018658;28;19924;-83
2022/07/19 01:32:06;;;;;;;;;;;;;;;;;;5021152;28;19913;-82
2022/07/19 01:34:31;;;;;;;;;;;;;;;;;;5023804;28;19925;-83
2022/07/19 01:36:56;;;;;;;;;;;;;;;;;;5020420;28;19976;-83
2022/07/19 01:39:21;;;;;;;;;;;;;;;;;;5018705;28;20248;-83
2022/07/19 01:41:47;;;;;;;;;;;;;;;;;;5018352;28;19939;-83
2022/07/19 01:44:12;;;;;;;;;;;;;;;;;;5016972;28;20378;-83
2022/07/19 01:46:37;;;;;;;;;;;;;;;;;;5020973;28;19917;-83
2022/07/19 01:49:02;;;;;;;;;;;;;;;;;;5020390;28;19924;-83
2022/07/19 01:51:27;;;;;;;;;;;;;;;;;;5043599;28;20359;-83
2022/07/19 01:53:53;;;;;;;;;;;;;;;;;;5040421;28;19922;-84
2022/07/19 01:56:18;;;;;;;;;;;;;;;;;;5042492;28;19910;-83
2022/07/19 01:58:43;;;;;;;;;;;;;;;;;;5040431;28;19932;-83
2022/07/19 02:01:08;;;;;;;;;;;;;;;;;;5045549;28;19924;-83
2022/07/19 02:03:33;;;;;;;;;;;;;;;;;;5045026;28;19966;-83
2022/07/19 02:05:58;;;;;;;;;;;;;;;;;;5041568;28;19933;-84
2022/07/19 02:08:24;;;;;;;;;;;;;;;;;;5045802;28;19940;-84
2022/07/19 02:10:49;;;;;;;;;;;;;;;;;;5043939;28;19916;-83
2022/07/19 02:13:15;;;;;;;;;;;;;;;;;;5040676;28;19923;-83
2022/07/19 02:15:40;;;;;;;;;;;;;;;;;;5042680;28;19917;-84
2022/07/19 02:18:05;;;;;;;;;;;;;;;;;;5046479;28;19913;-83
2022/07/19 02:20:30;;;;;;;;;;;;;;;;;;5044850;28;19917;-83
2022/07/19 02:22:56;;;;;;;;;;;;;;;;;;5041867;28;19924;-84
2022/07/19 02:25:21;;;;;;;;;;;;;;;;;;5046324;28;19921;-83
2022/07/19 02:27:47;;;;;;;;;;;;;;;;;;5042780;28;19913;-83
2022/07/19 02:30:12;;;;;;;;;;;;;;;;;;5044458;28;19917;-82
2022/07/19 02:32:37;;;;;;;;;;;;;;;;;;5044753;28;19917;-83
2022/07/19 02:35:02;;;;;;;;;;;;;;;;;;5044891;23;19947;-88
2022/07/19 02:37:27;;;;;;;;;;;;;;;;;;5026525;28;19913;-88
2022/07/19 02:39:53;;;;;;;;;;;;;;;;;;5021821;28;19909;-88
2022/07/19 02:42:18;;;;;;;;;;;;;;;;;;5022473;28;19917;-88
2022/07/19 02:44:43;;;;;;;;;;;;;;;;;;5022420;28;20008;-88
2022/07/19 02:47:08;;;;;;;;;;;;;;;;;;5027222;28;19921;-88
2022/07/19 02:49:33;;;;;;;;;;;;;;;;;;5027074;28;19967;-87
2022/07/19 02:51:58;;;;;;;;;;;;;;;;;;5024858;28;19913;-87
2022/07/19 02:54:24;;;;;;;;;;;;;;;;;;5024684;28;19920;-88
2022/07/19 02:56:49;;;;;;;;;;;;;;;;;;5029090;28;19988;-88
2022/07/19 02:59:14;;;;;;;;;;;;;;;;;;5026137;28;19914;-87
2022/07/19 03:01:39;;;;;;;;;;;;;;;;;;5016525;28;19940;-88
2022/07/19 03:04:04;;;;;;;;;;;;;;;;;;5025701;28;20004;-88
2022/07/19 03:06:29;;;;;;;;;;;;;;;;;;5026301;28;19913;-87
2022/07/19 03:08:55;;;;;;;;;;;;;;;;;;5029149;28;19909;-88
2022/07/19 03:11:20;;;;;;;;;;;;;;;;;;5030974;28;20361;-88
2022/07/19 03:13:45;;;;;;;;;;;;;;;;;;5027569;28;20290;-88
2022/07/19 03:16:10;;;;;;;;;;;;;;;;;;5023481;28;19917;-88
2022/07/19 03:18:35;;;;;;;;;;;;;;;;;;5021840;28;19917;-88
2022/07/19 03:21:01;;;;;;;;;;;;;;;;;;5033366;28;20135;-88
2022/07/19 03:23:26;;;;;;;;;;;;;;;;;;5024898;28;20405;-88
2022/07/19 03:25:51;;;;;;;;;;;;;;;;;;5007386;28;20461;-88
2022/07/19 03:28:16;;;;;;;;;;;;;;;;;;5028247;28;20012;-88
2022/07/19 03:30:42;;;;;;;;;;;;;;;;;;5028289;28;20453;-88
2022/07/19 03:33:08;;;;;;;;;;;;;;;;;;5026284;28;19913;-88
2022/07/19 03:35:33;;;;;;;;;;;;;;;;;;5022545;28;19925;-88
2022/07/19 03:37:58;;;;;;;;;;;;;;;;;;5023969;28;19917;-88
2022/07/19 03:40:23;;;;;;;;;;;;;;;;;;5025267;28;19955;-88
2022/07/19 03:42:49;;;;;;;;;;;;;;;;;;5019430;28;20008;-89
2022/07/19 03:45:14;;;;;;;;;;;;;;;;;;5022271;28;19928;-88
2022/07/19 03:47:39;;;;;;;;;;;;;;;;;;5021818;28;19953;-88
2022/07/19 03:50:04;;;;;;;;;;;;;;;;;;5022457;28;19913;-88
2022/07/19 03:52:29;;;;;;;;;;;;;;;;;;5011961;28;19913;-88
2022/07/19 03:54:54;;;;;;;;;;;;;;;;;;5021614;28;20506;-88
2022/07/19 03:57:20;;;;;;;;;;;;;;;;;;5023140;28;20042;-87
2022/07/19 03:59:45;;;;;;;;;;;;;;;;;;5024734;28;20032;-88
2022/07/19 04:02:10;;;;;;;;;;;;;;;;;;5026286;28;20580;-88
2022/07/19 04:04:35;;;;;;;;;;;;;;;;;;5021569;28;19917;-88
2022/07/19 04:07:01;;;;;;;;;;;;;;;;;;5025871;28;19949;-88
2022/07/19 04:09:26;;;;;;;;;;;;;;;;;;5025179;28;19917;-87
2022/07/19 04:11:51;;;;;;;;;;;;;;;;;;5020508;28;20386;-86
2022/07/19 04:14:16;;;;;;;;;;;;;;;;;;5020946;28;19921;-88
2022/07/19 04:16:41;;;;;;;;;;;;;;;;;;5024591;28;19920;-88
2022/07/19 04:19:06;;;;;;;;;;;;;;;;;;5021604;28;19935;-88
2022/07/19 04:21:32;;;;;;;;;;;;;;;;;;5009401;28;19913;-88
2022/07/19 04:23:57;;;;;;;;;;;;;;;;;;5026926;28;19956;-88
2022/07/19 04:26:22;;;;;;;;;;;;;;;;;;5023262;28;19928;-88
2022/07/19 04:28:47;;;;;;;;;;;;;;;;;;5022198;28;19928;-88
2022/07/19 04:31:14;;;;;;;;;;;;;;;;;;5026235;28;20974;-88
2022/07/19 04:33:39;;;;;;;;;;;;;;;;;;5026134;28;19913;-89
2022/07/19 04:36:04;;;;;;;;;;;;;;;;;;5030749;28;20462;-88
2022/07/19 04:38:30;;;;;;;;;;;;;;;;;;5023425;28;19967;-88
2022/07/19 04:40:55;;;;;;;;;;;;;;;;;;5026832;28;19917;-89
2022/07/19 04:43:20;;;;;;;;;;;;;;;;;;5022523;28;19909;-89
2022/07/19 04:45:45;;;;;;;;;;;;;;;;;;5024811;28;20017;-88
2022/07/19 04:48:11;;;;;;;;;;;;;;;;;;5019159;28;19917;-89
2022/07/19 04:50:36;;;;;;;;;;;;;;;;;;5022205;28;19956;-89
2022/07/19 04:53:01;;;;;;;;;;;;;;;;;;5025280;28;19909;-89
2022/07/19 04:55:26;;;;;;;;;;;;;;;;;;5024009;28;19928;-88
2022/07/19 04:57:52;;;;;;;;;;;;;;;;;;5022696;28;19959;-89
2022/07/19 05:00:17;;;;;;;;;;;;;;;;;;5017724;28;19920;-88
2022/07/19 05:02:42;;;;;;;;;;;;;;;;;;5007783;28;19913;-89
2022/07/19 05:05:07;;;;;;;;;;;;;;;;;;5005700;28;19996;-88
2022/07/19 05:07:32;;;;;;;;;;;;;;;;;;5026760;28;19918;-88
2022/07/19 05:09:57;;;;;;;;;;;;;;;;;;5018749;28;19913;-89
2022/07/19 05:12:23;;;;;;;;;;;;;;;;;;5020714;28;19920;-88
2022/07/19 05:14:48;;;;;;;;;;;;;;;;;;5023494;28;19956;-89
2022/07/19 05:17:13;;;;;;;;;;;;;;;;;;5019188;28;19924;-88
2022/07/19 05:19:39;;;;;;;;;;;;;;;;;;5019743;28;20272;-88
2022/07/19 05:22:04;;;;;;;;;;;;;;;;;;5024870;28;20268;-87
2022/07/19 05:24:29;;;;;;;;;;;;;;;;;;5022798;28;19913;-87
2022/07/19 05:26:54;;;;;;;;;;;;;;;;;;5021898;28;20057;-89
2022/07/19 05:29:19;;;;;;;;;;;;;;;;;;5022598;28;19917;-89
2022/07/19 05:31:44;;;;;;;;;;;;;;;;;;5027602;28;19952;-87
2022/07/19 05:34:10;;;;;;;;;;;;;;;;;;5022428;28;19959;-88
2022/07/19 05:36:35;;;;;;;;;;;;;;;;;;5028111;28;19913;-88
2022/07/19 05:39:00;;;;;;;;;;;;;;;;;;5022428;28;19921;-89
2022/07/19 05:41:25;;;;;;;;;;;;;;;;;;5030963;28;19940;-88
2022/07/19 05:43:51;;;;;;;;;;;;;;;;;;5029505;28;20387;-89
2022/07/19 05:46:16;;;;;;;;;;;;;;;;;;5021572;28;19921;-89
2022/07/19 05:48:42;;;;;;;;;;;;;;;;;;5030086;28;20398;-89
2022/07/19 05:51:07;;;;;;;;;;;;;;;;;;5033244;28;19917;-89
2022/07/19 05:53:32;;;;;;;;;;;;;;;;;;5025876;28;19914;-88
2022/07/19 05:55:57;;;;;;;;;;;;;;;;;;5031680;28;19971;-89
2022/07/19 05:58:24;;;;;;;;;;;;;;;;;;5028552;28;19917;-89
2022/07/19 06:03:33;;;;;;;;;;;;;;;;;;5027134;28;20582;-89
2022/07/19 06:05:58;;;;;;;;;;;;;;;;;;5021843;28;19918;-89
2022/07/19 06:08:23;;;;;;;;;;;;;;;;;;5028537;28;19988;-89
2022/07/19 06:10:49;;;;;;;;;;;;;;;;;;5032054;28;19913;-89
2022/07/19 06:13:14;;;;;;;;;;;;;;;;;;5028502;28;19920;-88
2022/07/19 06:15:39;;;;;;;;;;;;;;;;;;5022141;28;21273;-89
2022/07/19 06:18:04;;;;;;;;;;;;;;;;;;5027368;28;20000;-89
2022/07/19 06:20:29;;;;;;;;;;;;;;;;;;5033369;28;19956;-89
2022/07/19 06:22:55;;;;;;;;;;;;;;;;;;5024415;28;19920;-89
2022/07/19 06:25:20;;;;;;;;;;;;;;;;;;5027816;28;19957;-89
2022/07/19 06:27:45;;;;;;;;;;;;;;;;;;5023594;28;19914;-89
2022/07/19 06:30:10;;;;;;;;;;;;;;;;;;5025163;28;20322;-89
2022/07/19 06:32:35;;;;;;;;;;;;;;;;;;5027951;28;20053;-89
2022/07/19 06:35:00;;;;;;;;;;;;;;;;;;5008747;28;19981;-89
2022/07/19 06:37:26;;;;;;;;;;;;;;;;;;5014359;28;20567;-88
2022/07/19 06:39:51;;;;;;;;;;;;;;;;;;5025731;28;19955;-88
2022/07/19 06:42:16;;;;;;;;;;;;;;;;;;5023990;28;20323;-89
2022/07/19 06:44:41;;;;;;;;;;;;;;;;;;5029372;28;19967;-89
2022/07/19 06:47:06;;;;;;;;;;;;;;;;;;5024002;28;19967;-89
2022/07/19 06:49:31;;;;;;;;;;;;;;;;;;5024086;28;20389;-89
2022/07/19 06:51:57;;;;;;;;;;;;;;;;;;5010237;28;19913;-89
2022/07/19 06:54:22;;;;;;;;;;;;;;;;;;5028633;28;19913;-89
2022/07/19 06:56:48;;;;;;;;;;;;;;;;;;5023147;28;20374;-89
2022/07/19 06:59:13;;;;;;;;;;;;;;;;;;5026467;28;20434;-89
2022/07/19 07:01:38;;;;;;;;;;;;;;;;;;5022611;28;19913;-89
2022/07/19 07:04:03;;;;;;;;;;;;;;;;;;5026385;28;19914;-89
2022/07/19 07:06:28;;;;;;;;;;;;;;;;;;5024320;28;19960;-88
2022/07/19 07:08:54;;;;;;;;;;;;;;;;;;5024865;28;19967;-89
2022/07/19 07:11:19;;;;;;;;;;;;;;;;;;5025482;28;20294;-89
2022/07/19 07:13:44;;;;;;;;;;;;;;;;;;5021878;28;19917;-89
2022/07/19 07:16:09;;;;;;;;;;;;;;;;;;5024186;28;19918;-89
2022/07/19 07:18:34;;;;;;;;;;;;;;;;;;5025875;28;20399;-89
2022/07/19 07:20:59;;;;;;;;;;;;;;;;;;5027744;28;20422;-89
2022/07/19 07:23:25;;;;;;;;;;;;;;;;;;5023115;28;19929;-89
2022/07/19 07:25:50;;;;;;;;;;;;;;;;;;5027101;28;20447;-88
2022/07/19 07:28:15;;;;;;;;;;;;;;;;;;5024161;28;19913;-89
2022/07/19 07:30:40;;;;;;;;;;;;;;;;;;5026689;28;19917;-89
2022/07/19 07:33:05;;;;;;;;;;;;;;;;;;5027431;28;19921;-89
2022/07/19 07:35:31;;;;;;;;;;;;;;;;;;5021292;28;20004;-89
2022/07/19 07:37:56;;;;;;;;;;;;;;;;;;5019461;28;19917;-88
2022/07/19 07:40:21;;;;;;;;;;;;;;;;;;5021547;28;19968;-89
2022/07/19 07:42:46;;;;;;;;;;;;;;;;;;5020608;28;19917;-88
2022/07/19 07:45:11;;;;;;;;;;;;;;;;;;5026833;28;20881;-90
2022/07/19 07:47:37;;;;;;;;;;;;;;;;;;5020225;28;20387;-89
2022/07/19 07:50:02;;;;;;;;;;;;;;;;;;5020067;28;20295;-88
2022/07/19 07:52:27;;;;;;;;;;;;;;;;;;5022623;28;19909;-89
2022/07/19 07:54:52;;;;;;;;;;;;;;;;;;5020917;28;19913;-89
2022/07/19 07:57:18;;;;;;;;;;;;;;;;;;5023750;28;19913;-89
2022/07/19 07:59:43;;;;;;;;;;;;;;;;;;5044252;22;19964;-84
2022/07/19 08:02:08;;;;;;;;;;;;;;;;;;5023470;28;20310;-84
2022/07/19 08:04:33;;;;;;;;;;;;;;;;;;5019768;28;19929;-84
2022/07/19 08:06:58;;;;;;;;;;;;;;;;;;5023408;28;19950;-84
2022/07/19 08:09:23;;;;;;;;;;;;;;;;;;5022498;28;20293;-84
2022/07/19 08:11:49;;;;;;;;;;;;;;;;;;5037589;22;19925;-87
2022/07/19 08:14:14;;;;;;;;;;;;;;;;;;5012802;28;19913;-87
2022/07/19 08:16:39;;;;;;;;;;;;;;;;;;5014500;28;19925;-87
2022/07/19 08:19:04;;;;;;;;;;;;;;;;;;5014947;28;19921;-87
2022/07/19 08:21:30;;;;;;;;;;;;;;;;;;5022390;28;19920;-87
2022/07/19 08:23:55;;;;;;;;;;;;;;;;;;5030194;28;19924;-87
2022/07/19 08:26:20;;;;;;;;;;;;;;;;;;5030513;28;20374;-87
2022/07/19 08:28:46;;;;;;;;;;;;;;;;;;5028204;28;20267;-87
2022/07/19 08:31:11;;;;;;;;;;;;;;;;;;5032037;28;19913;-87
2022/07/19 08:33:37;;;;;;;;;;;;;;;;;;5008559;28;19914;-87
2022/07/19 08:36:02;;;;;;;;;;;;;;;;;;5033505;28;20299;-88
2022/07/19 08:38:27;;;;;;;;;;;;;;;;;;5028385;28;20343;-87
2022/07/19 08:40:53;;;;;;;;;;;;;;;;;;5029490;28;19922;-87
2022/07/19 08:43:18;;;;;;;;;;;;;;;;;;5027065;28;19916;-88
2022/07/19 08:45:43;;;;;;;;;;;;;;;;;;5026690;28;19917;-88
2022/07/19 08:48:09;;;;;;;;;;;;;;;;;;5023170;28;20441;-89
2022/07/19 08:50:34;;;;;;;;;;;;;;;;;;5031991;28;19996;-88
2022/07/19 08:52:59;;;;;;;;;;;;;;;;;;5031455;28;20013;-89
2022/07/19 08:55:25;;;;;;;;;;;;;;;;;;5033065;28;19920;-89
2022/07/19 08:58:02;;;;;;;;;;;;;;;;;;5032246;28;19909;-89
2022/07/19 09:00:27;;;;;;;;;;;;;;;;;;5026707;28;19913;-89
2022/07/19 09:02:52;;;;;;;;;;;;;;;;;;5034086;28;19975;-89
2022/07/19 09:05:18;;;;;;;;;;;;;;;;;;5035544;28;19921;-89
2022/07/19 09:07:43;;;;;;;;;;;;;;;;;;5032450;28;19917;-89
2022/07/19 09:10:08;;;;;;;;;;;;;;;;;;5031811;28;19970;-89
2022/07/19 09:12:33;;;;;;;;;;;;;;;;;;5027923;28;19962;-89
2022/07/19 09:14:59;;;;;;;;;;;;;;;;;;5025963;28;20005;-89
2022/07/19 09:17:24;;;;;;;;;;;;;;;;;;5030395;28;19959;-89
2022/07/19 09:19:49;;;;;;;;;;;;;;;;;;5028287;28;20047;-89
2022/07/19 09:22:15;;;;;;;;;;;;;;;;;;5031768;28;20297;-89
2022/07/19 09:24:40;;;;;;;;;;;;;;;;;;5029324;28;19925;-89
2022/07/19 09:27:05;;;;;;;;;;;;;;;;;;5034992;28;19916;-89
2022/07/19 09:29:31;;;;;;;;;;;;;;;;;;5031047;28;20028;-89
2022/07/19 09:31:56;;;;;;;;;;;;;;;;;;5024260;28;19948;-89
2022/07/19 09:34:21;;;;;;;;;;;;;;;;;;5025497;28;19913;-89
2022/07/19 09:36:46;;;;;;;;;;;;;;;;;;5023395;28;19913;-89
2022/07/19 09:39:12;;;;;;;;;;;;;;;;;;5014120;28;19913;-90
2022/07/19 09:41:37;;;;;;;;;;;;;;;;;;5041086;28;19909;-90
2022/07/19 09:44:05;;;;;;;;;;;;;;;;;;5032622;28;19941;-90
2022/07/19 09:46:31;;;;;;;;;;;;;;;;;;5033884;28;20367;-90
2022/07/19 09:48:56;;;;;;;;;;;;;;;;;;5030986;28;19913;-90
2022/07/19 09:51:21;;;;;;;;;;;;;;;;;;5029644;28;19913;-90
2022/07/19 09:53:46;;;;;;;;;;;;;;;;;;5028460;28;19913;-90
2022/07/19 09:56:12;;;;;;;;;;;;;;;;;;5015893;28;19979;-89
2022/07/19 09:58:37;;;;;;;;;;;;;;;;;;5025831;28;19913;-90
2022/07/19 10:01:02;;;;;;;;;;;;;;;;;;5029370;28;20387;-90
2022/07/19 10:03:27;;;;;;;;;;;;;;;;;;5028515;28;19920;-91
2022/07/19 10:05:53;;;;;;;;;;;;;;;;;;5041091;28;19967;-90
2022/07/19 10:08:20;;;;;;;;;;;;;;;;;;5021890;28;19916;-91
2022/07/19 10:10:46;;;;;;;;;;;;;;;;;;5042545;28;20018;-90
2022/07/19 10:13:13;;;;;;;;;;;;;;;;;;5015018;28;19963;-90
2022/07/19 10:15:38;;;;;;;;;;;;;;;;;;5033882;28;19917;-90
2022/07/19 10:18:04;;;;;;;;;;;;;;;;;;5034689;28;20400;-90
2022/07/19 10:20:29;;;;;;;;;;;;;;;;;;5032912;28;19995;-91
2022/07/19 10:23:04;;;;;;;;;;;;;;;;;;;;;
2022/07/19 10:25:30;;;;;;;;;;;;;;;;;;5041038;28;19917;-90
2022/07/19 10:27:57;;;;;;;;;;;;;;;;;;5035535;28;20012;-91
2022/07/19 10:30:23;;;;;;;;;;;;;;;;;;5025788;28;19920;-90
2022/07/19 10:32:48;;;;;;;;;;;;;;;;;;5032648;28;19914;-91
2022/07/19 10:35:21;;;;;;;;;;;;;;;;;;5034142;28;20446;-91
2022/07/19 10:37:46;;;;;;;;;;;;;;;;;;5041284;28;19945;-91
2022/07/19 10:40:14;;;;;;;;;;;;;;;;;;5015185;28;19959;-91
2022/07/19 10:42:39;;;;;;;;;;;;;;;;;;5032851;28;19920;-90
2022/07/19 10:45:04;;;;;;;;;;;;;;;;;;5025556;28;19925;-90
2022/07/19 10:47:29;;;;;;;;;;;;;;;;;;5006594;28;20034;-90
2022/07/19 10:49:55;;;;;;;;;;;;;;;;;;5027889;28;19929;-90
2022/07/19 10:52:20;;;;;;;;;;;;;;;;;;5006578;28;19964;-91
2022/07/19 10:54:45;;;;;;;;;;;;;;;;;;5031115;28;20341;-90
2022/07/19 10:57:10;;;;;;;;;;;;;;;;;;5025815;28;19921;-90
2022/07/19 10:59:37;;;;;;;;;;;;;;;;;;5033035;28;19937;-91
2022/07/19 11:02:04;;;;;;;;;;;;;;;;;;5021967;28;20000;-90
2022/07/19 11:04:30;;;;;;;;;;;;;;;;;;5016360;28;19936;-91
2022/07/19 11:06:55;;;;;;;;;;;;;;;;;;5027852;28;20278;-91
2022/07/19 11:09:20;;;;;;;;;;;;;;;;;;5023863;28;19956;-91
2022/07/19 11:11:45;;;;;;;;;;;;;;;;;;5023027;28;20035;-90
2022/07/19 11:14:11;;;;;;;;;;;;;;;;;;5026976;28;19959;-90
2022/07/19 11:16:36;;;;;;;;;;;;;;;;;;5026111;28;19921;-90
2022/07/19 11:19:01;;;;;;;;;;;;;;;;;;5021917;28;20336;-90
2022/07/19 11:21:26;;;;;;;;;;;;;;;;;;5025873;28;20340;-90
2022/07/19 11:23:51;;;;;;;;;;;;;;;;;;5018664;28;19917;-90
2022/07/19 11:26:23;;;;;;;;;;;;;;;;;;5022481;28;19917;-90
2022/07/19 11:28:48;;;;;;;;;;;;;;;;;;5022803;28;19919;-90
2022/07/19 11:31:13;;;;;;;;;;;;;;;;;;5019634;28;19921;-90
2022/07/19 11:33:38;;;;;;;;;;;;;;;;;;5022029;28;20453;-90
2022/07/19 11:36:03;;;;;;;;;;;;;;;;;;5026820;28;19913;-91
2022/07/19 11:38:29;;;;;;;;;;;;;;;;;;5027921;28;19917;-91
2022/07/19 11:40:54;;;;;;;;;;;;;;;;;;5021746;28;20291;-91
2022/07/19 11:43:19;;;;;;;;;;;;;;;;;;5034655;28;20406;-90
2022/07/19 11:45:44;;;;;;;;;;;;;;;;;;5025687;28;20385;-91
2022/07/19 11:48:09;;;;;;;;;;;;;;;;;;5021975;28;19917;-90
2022/07/19 11:50:35;;;;;;;;;;;;;;;;;;5019399;28;19918;-91
2022/07/19 11:53:00;;;;;;;;;;;;;;;;;;5022505;28;19971;-90
2022/07/19 11:55:26;;;;;;;;;;;;;;;;;;5020762;28;20374;-90
2022/07/19 11:57:51;;;;;;;;;;;;;;;;;;5021865;28;19917;-91
2022/07/19 12:00:16;;;;;;;;;;;;;;;;;;5013460;28;20282;-90
2022/07/19 12:02:41;;;;;;;;;;;;;;;;;;5026795;28;20306;-90
2022/07/19 12:05:07;;;;;;;;;;;;;;;;;;5025754;28;19921;-91
2022/07/19 12:07:32;;;;;;;;;;;;;;;;;;5026431;28;19920;-92
2022/07/19 12:09:57;;;;;;;;;;;;;;;;;;5031542;28;19956;-91
2022/07/19 12:12:24;;;;;;;;;;;;;;;;;;5028312;28;19917;-91
2022/07/19 12:14:50;;;;;;;;;;;;;;;;;;5031688;28;19917;-92
2022/07/19 12:17:15;;;;;;;;;;;;;;;;;;5032258;28;20286;-91
2022/07/19 12:19:40;;;;;;;;;;;;;;;;;;5025836;28;19970;-92
2022/07/19 12:22:06;;;;;;;;;;;;;;;;;;5027615;28;19967;-92
2022/07/19 12:24:31;;;;;;;;;;;;;;;;;;5025478;28;19917;-91
2022/07/19 12:26:57;;;;;;;;;;;;;;;;;;5029362;28;19924;-91
2022/07/19 12:29:22;;;;;;;;;;;;;;;;;;5027238;28;19913;-92
2022/07/19 12:31:47;;;;;;;;;;;;;;;;;;5028109;28;20375;-92
2022/07/19 12:34:13;;;;;;;;;;;;;;;;;;5024938;28;19943;-91
2022/07/19 12:36:38;;;;;;;;;;;;;;;;;;5026533;28;19917;-91
2022/07/19 12:39:03;;;;;;;;;;;;;;;;;;5006734;28;20370;-91
2022/07/19 12:41:28;;;;;;;;;;;;;;;;;;5031009;28;20027;-91
2022/07/19 12:43:53;;;;;;;;;;;;;;;;;;5023173;28;19966;-92
2022/07/19 12:46:19;;;;;;;;;;;;;;;;;;5029057;28;19923;-92
2022/07/19 12:48:44;;;;;;;;;;;;;;;;;;5030981;28;19921;-91
2022/07/19 12:51:09;;;;;;;;;;;;;;;;;;5028431;28;19974;-91
2022/07/19 12:53:34;;;;;;;;;;;;;;;;;;5019395;28;20190;-91
2022/07/19 12:55:59;;;;;;;;;;;;;;;;;;5003995;28;20297;-91
2022/07/19 13:01:11;;;;;;;;;;;;;;;;;;5030872;28;20385;-90
2022/07/19 13:03:37;;;;;;;;;;;;;;;;;;5022841;28;20453;-92
2022/07/19 13:06:02;;;;;;;;;;;;;;;;;;5020207;28;19913;-92
2022/07/19 13:08:27;;;;;;;;;;;;;;;;;;5021336;28;20005;-91
2022/07/19 13:10:52;;;;;;;;;;;;;;;;;;5026685;28;20338;-91
2022/07/19 13:13:20;;;;;;;;;;;;;;;;;;5026888;28;19921;-91
2022/07/19 13:15:45;;;;;;;;;;;;;;;;;;5009237;28;20003;-91
2022/07/19 13:18:12;;;;;;;;;;;;;;;;;;5025414;28;20071;-91
2022/07/19 13:20:37;;;;;;;;;;;;;;;;;;5026280;28;19917;-91
2022/07/19 13:23:03;;;;;;;;;;;;;;;;;;5028116;28;19946;-92
2022/07/19 13:25:28;;;;;;;;;;;;;;;;;;5019693;28;20414;-92
2022/07/19 13:27:53;;;;;;;;;;;;;;;;;;5024285;28;19963;-92
2022/07/19 13:30:18;;;;;;;;;;;;;;;;;;5027839;28;19917;-92
2022/07/19 13:32:43;;;;;;;;;;;;;;;;;;5022486;28;20394;-92
2022/07/19 13:35:09;;;;;;;;;;;;;;;;;;5009284;28;19916;-92
2022/07/19 13:37:34;;;;;;;;;;;;;;;;;;5024178;28;19913;-91
2022/07/19 13:39:59;;;;;;;;;;;;;;;;;;5025244;28;19913;-92
2022/07/19 13:42:24;;;;;;;;;;;;;;;;;;5009166;28;20387;-92
2022/07/19 13:44:49;;;;;;;;;;;;;;;;;;5027270;28;19943;-91
2022/07/19 13:47:15;;;;;;;;;;;;;;;;;;5027282;28;19939;-91
2022/07/19 13:49:40;;;;;;;;;;;;;;;;;;5028809;28;20032;-91
2022/07/19 13:52:05;;;;;;;;;;;;;;;;;;5020110;28;19945;-91
2022/07/19 13:54:30;;;;;;;;;;;;;;;;;;5025405;28;19921;-91
2022/07/19 13:56:56;;;;;;;;;;;;;;;;;;5027369;28;19913;-92
2022/07/19 13:59:22;;;;;;;;;;;;;;;;;;5035083;28;20007;-92
2022/07/19 14:01:47;;;;;;;;;;;;;;;;;;5031770;28;19924;-91
2022/07/19 14:04:12;;;;;;;;;;;;;;;;;;5024235;28;19917;-92
2022/07/19 14:06:37;;;;;;;;;;;;;;;;;;5028645;28;20341;-91
2022/07/19 14:09:02;;;;;;;;;;;;;;;;;;5031971;28;20499;-91
2022/07/19 14:11:28;;;;;;;;;;;;;;;;;;5043624;23;19917;-85
2022/07/19 14:13:53;;;;;;;;;;;;;;;;;;5005153;28;20404;-84
2022/07/19 14:16:18;;;;;;;;;;;;;;;;;;5025777;28;19971;-84
2022/07/19 14:18:43;;;;;;;;;;;;;;;;;;5023582;28;19976;-84
2022/07/19 14:21:08;;;;;;;;;;;;;;;;;;5025497;28;19923;-84
2022/07/19 14:23:34;;;;;;;;;;;;;;;;;;5000389;28;20379;-84
2022/07/19 14:25:59;;;;;;;;;;;;;;;;;;4997725;28;20001;-84
2022/07/19 14:28:24;;;;;;;;;;;;;;;;;;5001344;28;20276;-84
2022/07/19 14:30:49;;;;;;;;;;;;;;;;;;4997355;28;19921;-84
2022/07/19 14:33:14;;;;;;;;;;;;;;;;;;4998162;28;20447;-84
2022/07/19 14:35:40;;;;;;;;;;;;;;;;;;4998901;28;20598;-84
2022/07/19 14:38:05;;;;;;;;;;;;;;;;;;4987641;28;20259;-84
2022/07/19 14:40:30;;;;;;;;;;;;;;;;;;4986785;28;20445;-84
2022/07/19 14:42:55;;;;;;;;;;;;;;;;;;4997537;28;19921;-84
2022/07/19 14:45:20;;;;;;;;;;;;;;;;;;5002406;28;19914;-84
2022/07/19 14:47:45;;;;;;;;;;;;;;;;;;4981393;28;19925;-85
2022/07/19 14:50:11;;;;;;;;;;;;;;;;;;5000520;28;19921;-84
2022/07/19 14:52:36;;;;;;;;;;;;;;;;;;5004712;28;19917;-84
2022/07/19 14:55:01;;;;;;;;;;;;;;;;;;4988413;28;19945;-84
2022/07/19 14:57:26;;;;;;;;;;;;;;;;;;4984853;28;19918;-84
2022/07/19 14:59:51;;;;;;;;;;;;;;;;;;4999059;28;20497;-84
2022/07/19 15:02:17;;;;;;;;;;;;;;;;;;4997913;28;19921;-84
2022/07/19 15:04:42;;;;;;;;;;;;;;;;;;5002701;28;19965;-84
2022/07/19 15:07:07;;;;;;;;;;;;;;;;;;5000508;28;20298;-84
2022/07/19 15:09:32;;;;;;;;;;;;;;;;;;5001751;28;19942;-84
2022/07/19 15:11:59;;;;;;;;;;;;;;;;;;5002170;28;19933;-84
2022/07/19 15:14:24;;;;;;;;;;;;;;;;;;5001414;28;20016;-84
2022/07/19 15:16:50;;;;;;;;;;;;;;;;;;5002969;28;20004;-84
2022/07/19 15:19:15;;;;;;;;;;;;;;;;;;5001406;28;19922;-84
2022/07/19 15:21:40;;;;;;;;;;;;;;;;;;4998449;28;19945;-84
2022/07/19 15:24:05;;;;;;;;;;;;;;;;;;5004320;28;19922;-84
2022/07/19 15:26:30;;;;;;;;;;;;;;;;;;5001158;28;20345;-84
2022/07/19 15:28:56;;;;;;;;;;;;;;;;;;4996294;28;20354;-84
2022/07/19 15:31:21;;;;;;;;;;;;;;;;;;5002626;28;19952;-84
2022/07/19 15:33:46;;;;;;;;;;;;;;;;;;4998964;28;19913;-84
2022/07/19 15:36:11;;;;;;;;;;;;;;;;;;5003085;28;20437;-84
2022/07/19 15:38:36;;;;;;;;;;;;;;;;;;5000376;28;19913;-84
2022/07/19 15:41:01;;;;;;;;;;;;;;;;;;5001132;28;20081;-84
2022/07/19 15:43:27;;;;;;;;;;;;;;;;;;4994161;28;19929;-84
2022/07/19 15:45:54;;;;;;;;;;;;;;;;;;4999157;28;20191;-84
2022/07/19 15:48:19;;;;;;;;;;;;;;;;;;4997657;28;20294;-84
2022/07/19 15:50:44;;;;;;;;;;;;;;;;;;5004702;28;19925;-84
2022/07/19 15:53:09;;;;;;;;;;;;;;;;;;5000496;28;20302;-83
2022/07/19 15:55:34;;;;;;;;;;;;;;;;;;5001676;28;19920;-83
2022/07/19 15:57:59;;;;;;;;;;;;;;;;;;5014785;28;19913;-83
2022/07/19 16:00:25;;;;;;;;;;;;;;;;;;5009350;28;19921;-83
2022/07/19 16:02:50;;;;;;;;;;;;;;;;;;5000666;28;20375;-83
2022/07/19 16:05:15;;;;;;;;;;;;;;;;;;5004905;28;20295;-83
2022/07/19 16:07:41;;;;;;;;;;;;;;;;;;5007801;28;19992;-83
2022/07/19 16:10:06;;;;;;;;;;;;;;;;;;5011997;28;20000;-83
2022/07/19 16:12:31;;;;;;;;;;;;;;;;;;5010483;28;20416;-83
2022/07/19 16:14:57;;;;;;;;;;;;;;;;;;5006735;28;20016;-84
2022/07/19 16:17:22;;;;;;;;;;;;;;;;;;5000555;28;19913;-82
2022/07/19 16:19:47;;;;;;;;;;;;;;;;;;5003161;28;20016;-83
2022/07/19 16:22:12;;;;;;;;;;;;;;;;;;4986177;28;19925;-82
2022/07/19 16:24:37;;;;;;;;;;;;;;;;;;5001026;28;20008;-83
2022/07/19 16:27:02;;;;;;;;;;;;;;;;;;5003573;28;20368;-82
2022/07/19 16:29:28;;;;;;;;;;;;;;;;;;5008470;28;19917;-82
2022/07/19 16:31:53;;;;;;;;;;;;;;;;;;5008527;28;19921;-82
2022/07/19 16:34:18;;;;;;;;;;;;;;;;;;5001262;28;19921;-81
2022/07/19 16:36:43;;;;;;;;;;;;;;;;;;5006103;28;19924;-82